Time;durP1;ratioP1;P1;durP2;ratioP2;P2;SDS_P1;SDS_P2;PMS_P1;PMS_P2;Temp;Humidity;BMP_temperature;BMP_pressure;BME280_temperature;BME280_humidity;BME280_pressure;Samples;Min_cycle;Max_cycle;Signal;HPM_P1;HPM_P2
2022/10/18 00:02:41;;;;;;;27.87;19.13;;;;;;;16.53;100.00;101480.43;5222462;56;1145367;-77
2022/10/18 00:07:47;;;;;;;29.30;19.07;;;;;;;16.47;100.00;101484.98;5191373;57;1145300;-77
2022/10/18 00:12:53;;;;;;;29.00;19.13;;;;;;;16.43;100.00;101484.89;5191918;56;1145282;-75
2022/10/18 00:18:00;;;;;;;28.77;19.17;;;;;;;16.41;100.00;101484.66;5200729;56;1145321;-75
2022/10/18 00:23:05;;;;;;;28.33;20.63;;;;;;;16.38;100.00;101491.59;5191189;56;1145429;-75
2022/10/18 00:28:10;;;;;;;31.23;20.50;;;;;;;16.38;100.00;101488.44;5068161;57;1145270;-75
2022/10/18 00:33:17;;;;;;;31.97;21.00;;;;;;;16.33;100.00;101492.50;4963416;59;1145558;-74
2022/10/18 00:38:23;;;;;;;28.17;19.60;;;;;;;16.30;100.00;101498.10;5011996;58;1145258;-76
2022/10/18 00:43:28;;;;;;;32.67;21.10;;;;;;;16.28;100.00;101496.89;5123152;57;1145198;-76
2022/10/18 00:48:34;;;;;;;29.27;19.30;;;;;;;16.25;100.00;101496.30;5040268;58;1145495;-77
2022/10/18 00:53:40;;;;;;;30.60;20.07;;;;;;;16.18;100.00;101499.52;5033931;58;1145318;-74
2022/10/18 00:58:49;;;;;;;28.20;18.73;;;;;;;16.15;100.00;101498.44;5034370;58;1145401;-76
2022/10/18 01:03:56;;;;;;;34.10;20.70;;;;;;;16.19;100.00;101499.03;5040268;58;1145410;-75
2022/10/18 01:09:27;;;;;;;26.07;20.03;;;;;;;16.24;100.00;101491.45;5072819;58;1145534;-76
2022/10/18 01:15:13;;;;;;;30.73;22.57;;;;;;;16.33;100.00;101485.34;5133494;56;1145320;-75
2022/10/18 01:20:56;;;;;;;29.03;21.03;;;;;;;16.41;100.00;101480.17;5013086;59;1143396;-75
2022/10/18 01:26:31;;;;;;;28.52;20.77;;;;;;;16.43;100.00;101482.70;5193723;56;1143155;-77
2022/10/18 01:32:05;;;;;;;38.17;23.60;;;;;;;16.40;100.00;101490.49;5227032;56;1143209;-76
2022/10/18 01:37:16;;;;;;;40.60;24.77;;;;;;;16.40;100.00;101490.49;5191926;56;1145451;-77
2022/10/18 01:42:22;;;;;;;32.87;23.60;;;;;;;16.40;100.00;101486.97;4901836;60;1145321;-74
2022/10/18 01:47:29;;;;;;;31.60;21.03;;;;;;;16.33;100.00;101478.67;4916647;58;1145299;-75
2022/10/18 01:52:35;;;;;;;33.57;20.13;;;;;;;16.33;100.00;101477.82;5092778;57;1145215;-74
2022/10/18 01:57:45;;;;;;;30.50;20.53;;;;;;;16.34;100.00;101476.36;5124513;57;1145272;-74
2022/10/18 02:03:22;;;;;;;30.47;20.43;;;;;;;16.26;100.00;101477.48;5121878;57;1145235;-73
2022/10/18 02:08:46;;;;;;;33.87;20.83;;;;;;;16.03;100.00;101489.30;5131730;57;1145259;-74
2022/10/18 02:14:06;;;;;;;32.93;21.63;;;;;;;15.81;100.00;101494.27;5131688;57;1145372;-74
2022/10/18 02:19:31;;;;;;;30.53;20.70;;;;;;;15.69;100.00;101496.63;5132318;57;1145734;-76
2022/10/18 02:24:41;;;;;;;31.23;22.23;;;;;;;15.69;100.00;101489.97;5114380;57;1145074;-75
2022/10/18 02:29:47;;;;;;;31.70;20.63;;;;;;;15.65;100.00;101493.37;5143694;57;1145262;-76
2022/10/18 02:35:13;;;;;;;29.13;20.03;;;;;;;15.64;100.00;101494.34;5193315;55;1145596;-75
2022/10/18 02:40:20;;;;;;;31.07;19.73;;;;;;;15.57;100.00;101498.51;5193956;56;1145776;-76
2022/10/18 02:45:27;;;;;;;30.17;18.17;;;;;;;15.48;100.00;101488.55;5194582;56;1145183;-74
2022/10/18 02:50:32;;;;;;;30.43;19.83;;;;;;;15.42;100.00;101495.74;5225372;55;1143218;-75
2022/10/18 02:55:38;;;;;;;28.40;20.73;;;;;;;15.41;100.00;101501.56;5229447;55;1143179;-76
2022/10/18 03:00:44;;;;;;;31.23;22.70;;;;;;;15.48;100.00;101501.40;5229426;55;1143352;-75
2022/10/18 03:05:52;;;;;;;31.63;22.47;;;;;;;15.59;100.00;101500.53;5229500;55;1143181;-74
2022/10/18 03:10:57;;;;;;;33.63;20.87;;;;;;;15.63;100.00;101506.47;5229345;56;1143149;-74
2022/10/18 03:16:03;;;;;;;26.63;18.80;;;;;;;15.62;100.00;101514.10;5229342;56;1143537;-75
2022/10/18 03:21:10;;;;;;;29.17;21.57;;;;;;;15.56;100.00;101515.96;5229373;56;1143224;-76
2022/10/18 03:26:16;;;;;;;33.93;23.83;;;;;;;15.52;100.00;101513.15;5181923;56;1143193;-75
2022/10/18 03:31:22;;;;;;;33.67;23.40;;;;;;;15.49;100.00;101511.09;5195510;56;1143211;-75
2022/10/18 03:36:28;;;;;;;43.87;24.30;;;;;;;15.44;100.00;101505.77;5268103;56;1143275;-75
2022/10/18 03:41:34;;;;;;;42.70;20.57;;;;;;;15.37;100.00;101501.44;5282916;56;1143160;-75
2022/10/18 03:46:40;;;;;;;37.90;21.43;;;;;;;15.38;100.00;101506.29;5282936;56;1143416;-75
2022/10/18 03:51:46;;;;;;;35.73;22.23;;;;;;;15.32;100.00;101514.29;5250258;56;1143076;-75
2022/10/18 03:56:52;;;;;;;32.23;22.03;;;;;;;15.06;100.00;101517.75;5172977;56;1143199;-76
2022/10/18 04:01:57;;;;;;;30.63;21.23;;;;;;;14.84;100.00;101525.75;5108383;56;1143110;-76
2022/10/18 04:07:03;;;;;;;30.50;19.27;;;;;;;14.70;100.00;101530.84;5060550;57;1143151;-75
2022/10/18 04:12:09;;;;;;;29.83;20.17;;;;;;;14.77;100.00;101531.22;5094811;56;1143347;-74
2022/10/18 04:17:15;;;;;;;33.33;20.53;;;;;;;14.83;100.00;101536.03;5107661;57;1143423;-75
2022/10/18 04:22:20;;;;;;;33.03;22.33;;;;;;;14.96;100.00;101531.94;5109146;57;1141116;-74
2022/10/18 04:27:26;;;;;;;29.60;21.13;;;;;;;14.96;100.00;101531.94;5052113;56;1141151;-74
2022/10/18 04:32:33;;;;;;;48.07;22.47;;;;;;;14.95;100.00;101522.25;5052723;57;1145478;-75
2022/10/18 04:37:39;;;;;;;31.20;19.97;;;;;;;14.91;100.00;101533.62;5068039;57;1145474;-74
2022/10/18 04:42:45;;;;;;;30.35;20.30;;;;;;;14.92;100.00;101532.66;5120472;57;1145224;-75
2022/10/18 04:47:51;;;;;;;28.80;20.40;;;;;;;15.02;100.00;101526.95;5125686;56;1145187;-74
2022/10/18 04:52:57;;;;;;;35.40;23.07;;;;;;;15.13;100.00;101524.25;5202044;56;1145201;-74
2022/10/18 04:58:04;;;;;;;41.97;24.10;;;;;;;15.23;100.00;101515.05;5055772;58;1145257;-76
2022/10/18 05:03:12;;;;;;;39.13;25.57;;;;;;;15.27;100.00;101515.17;5116564;57;1145502;-75
2022/10/18 05:08:18;;;;;;;32.80;21.67;;;;;;;15.29;100.00;101517.20;5177851;57;1145221;-76
2022/10/18 05:13:24;;;;;;;33.17;21.70;;;;;;;15.22;100.00;101523.17;5162841;57;1145201;-74
2022/10/18 05:18:30;;;;;;;31.90;22.40;;;;;;;15.27;100.00;101520.98;5156025;56;1145264;-74
2022/10/18 05:23:36;;;;;;;44.57;23.30;;;;;;;15.32;100.00;101518.77;5166692;56;1145162;-74
2022/10/18 05:28:42;;;;;;;47.67;23.63;;;;;;;15.34;100.00;101512.35;5141684;57;1145304;-76
2022/10/18 05:33:48;;;;;;;46.43;23.50;;;;;;;15.36;100.00;101508.23;5138787;56;1145340;-74
2022/10/18 05:38:54;;;;;;;42.13;24.50;;;;;;;15.36;100.00;101503.75;5148916;56;1145224;-74
2022/10/18 05:44:07;;;;;;;42.30;25.77;;;;;;;15.35;100.00;101502.53;5214413;56;1145433;-75
2022/10/18 05:49:14;;;;;;;41.87;25.20;;;;;;;15.35;100.00;101503.87;5170236;56;1145361;-74
2022/10/18 05:54:20;;;;;;;40.07;24.70;;;;;;;15.35;100.00;101511.37;5263186;56;1145283;-74
2022/10/18 05:59:26;;;;;;;35.30;22.33;;;;;;;15.32;100.00;101507.63;5225694;56;1145271;-75
2022/10/18 06:04:32;;;;;;;29.97;20.80;;;;;;;15.32;100.00;101516.95;5184641;56;1145137;-74
2022/10/18 06:09:38;;;;;;;27.74;20.36;;;;;;;15.18;100.00;101517.23;5231101;56;1145093;-73
2022/10/18 06:14:44;;;;;;;35.17;21.77;;;;;;;15.16;100.00;101515.66;5282515;56;1145330;-74
2022/10/18 06:19:50;;;;;;;29.87;21.33;;;;;;;15.17;100.00;101532.02;5282378;56;1145224;-73
2022/10/18 06:24:56;;;;;;;39.53;20.40;;;;;;;15.06;100.00;101544.39;5221536;56;1145208;-74
2022/10/18 06:30:02;;;;;;;39.70;19.57;;;;;;;14.88;100.00;101558.31;5194811;57;1145238;-74
2022/10/18 06:35:08;;;;;;;31.80;20.07;;;;;;;14.76;100.00;101562.80;5204675;56;1145189;-75
2022/10/18 06:40:14;;;;;;;35.60;19.63;;;;;;;14.74;100.00;101555.41;5228808;55;1145149;-75
2022/10/18 06:45:20;;;;;;;28.33;19.73;;;;;;;14.76;100.00;101560.99;5229262;56;1145204;-75
2022/10/18 06:50:26;;;;;;;37.00;22.62;;;;;;;14.77;100.00;101572.49;5225521;55;1145296;-74
2022/10/18 06:55:31;;;;;;;32.90;21.53;;;;;;;14.74;100.00;101572.24;5195849;57;1145420;-73
2022/10/18 07:00:38;;;;;;;35.73;20.90;;;;;;;14.79;100.00;101574.55;5236964;56;1145240;-74
2022/10/18 07:05:43;;;;;;;38.40;20.73;;;;;;;14.86;100.00;101582.41;5195612;56;1145238;-74
2022/10/18 07:10:53;;;;;;;35.40;21.93;;;;;;;14.91;100.00;101579.39;5195750;57;1145430;-74
2022/10/18 07:16:09;;;;;;;32.80;21.57;;;;;;;15.01;100.00;101581.20;5244295;56;1145137;-74
2022/10/18 07:21:19;;;;;;;33.17;22.60;;;;;;;15.05;100.00;101588.47;5059063;57;1145428;-75
2022/10/18 07:26:32;;;;;;;34.57;22.03;;;;;;;15.09;100.00;101584.60;5150926;57;1145565;-74
2022/10/18 07:31:39;;;;;;;31.67;21.63;;;;;;;15.11;100.00;101588.84;5091812;57;1143178;-76
2022/10/18 07:36:46;;;;;;;40.20;22.03;;;;;;;15.11;100.00;101580.00;5121667;57;1143114;-74
2022/10/18 07:41:53;;;;;;;34.50;21.63;;;;;;;15.24;100.00;101577.20;5135071;57;1143449;-73
2022/10/18 07:46:58;;;;;;;30.03;21.23;;;;;;;15.34;100.00;101580.80;5132475;57;1143174;-74
2022/10/18 07:52:05;;;;;;;32.97;21.87;;;;;;;15.29;100.00;101581.66;5207767;56;1143212;-74
2022/10/18 07:57:10;;;;;;;42.13;21.93;;;;;;;15.24;100.00;101583.38;5228524;55;1143050;-75
2022/10/18 08:02:16;;;;;;;34.50;20.67;;;;;;;15.31;100.00;101579.23;5237170;55;1143367;-74
2022/10/18 08:07:22;;;;;;;31.80;22.83;;;;;;;15.33;100.00;101574.62;5295918;55;1143372;-76
2022/10/18 08:12:28;;;;;;;31.80;19.27;;;;;;;15.38;100.00;101567.59;5270114;55;1143227;-74
2022/10/18 08:17:33;;;;;;;39.07;24.47;;;;;;;15.40;100.00;101567.84;5282894;55;1143242;-74
2022/10/18 08:22:39;;;;;;;44.75;28.62;;;;;;;15.39;100.00;101564.81;5250111;55;1143249;-75
2022/10/18 08:27:45;;;;;;;86.37;58.33;;;;;;;15.43;100.00;101547.58;5228552;55;1143097;-76
2022/10/18 08:32:50;;;;;;;51.53;34.70;;;;;;;15.58;100.00;101540.20;5234178;55;1143161;-76
2022/10/18 08:37:56;;;;;;;28.57;19.50;;;;;;;15.70;100.00;101533.00;5234962;55;1143187;-75
2022/10/18 08:43:24;;;;;;;33.67;19.20;;;;;;;15.76;100.00;101533.31;5233717;56;1143184;-74
2022/10/18 08:48:46;;;;;;;35.33;19.92;;;;;;;15.73;100.00;101527.42;5196025;55;1145210;-74
2022/10/18 08:54:18;;;;;;;38.70;24.77;;;;;;;15.79;100.00;101537.55;5160425;56;1145421;-75
2022/10/18 08:59:24;;;;;;;34.37;25.03;;;;;;;15.79;100.00;101535.73;5187205;56;1145216;-74
2022/10/18 09:05:11;;;;;;;32.57;22.53;;;;;;;15.90;100.00;101530.83;5204599;56;1145187;-74
2022/10/18 09:11:02;;;;;;;41.47;28.70;;;;;;;15.98;100.00;101531.53;5150512;56;1145225;-74
2022/10/18 09:16:21;;;;;;;50.03;26.73;;;;;;;16.00;100.00;101528.25;5150599;56;1145373;-75
2022/10/18 09:21:41;;;;;;;47.00;23.90;;;;;;;15.97;100.00;101530.69;5189236;56;1145187;-75
2022/10/18 09:26:53;;;;;;;34.63;21.17;;;;;;;15.90;100.00;101524.16;5274199;55;1145250;-75
2022/10/18 09:32:06;;;;;;;54.93;27.75;;;;;;;15.82;100.00;101534.16;5269273;55;1143139;-74
2022/10/18 09:37:17;;;;;;;47.47;25.67;;;;;;;15.76;100.00;101540.47;5222559;55;1143263;-74
2022/10/18 09:42:31;;;;;;;35.17;22.97;;;;;;;15.76;100.00;101535.98;5248579;55;1143170;-75
2022/10/18 09:47:47;;;;;;;32.93;23.07;;;;;;;15.78;100.00;101543.86;5215848;56;1143125;-75
2022/10/18 09:53:15;;;;;;;34.27;22.27;;;;;;;15.78;100.00;101539.86;5222852;56;1143203;-75
2022/10/18 09:58:19;;;;;;;31.00;21.23;;;;;;;15.80;100.00;101535.25;5227130;55;1143081;-74
2022/10/18 10:03:26;;;;;;;31.83;21.67;;;;;;;15.74;100.00;101537.92;5204127;55;1143165;-75
2022/10/18 10:08:35;;;;;;;34.37;21.87;;;;;;;15.74;100.00;101535.27;5100970;57;1141304;-75
2022/10/18 10:13:41;;;;;;;49.70;23.47;;;;;;;15.71;100.00;101520.88;5165994;56;1145237;-75
2022/10/18 10:18:53;;;;;;;46.40;23.40;;;;;;;15.81;100.00;101520.94;5206918;56;1145260;-75
2022/10/18 10:24:00;;;;;;;34.47;22.30;;;;;;;15.82;100.00;101524.81;5161632;56;1145160;-76
2022/10/18 10:29:38;;;;;;;33.83;23.60;;;;;;;15.76;100.00;101537.80;5182002;56;1145497;-75
2022/10/18 10:34:44;;;;;;;36.13;25.57;;;;;;;15.74;100.00;101534.41;5191023;56;1145169;-76
2022/10/18 10:40:13;;;;;;;49.53;32.00;;;;;;;15.70;100.00;101516.52;5171928;56;1145302;-74
2022/10/18 10:45:22;;;;;;;44.43;28.50;;;;;;;15.74;100.00;101515.74;5184138;55;1145431;-76
2022/10/18 10:50:29;;;;;;;29.37;18.63;;;;;;;15.77;100.00;101488.82;5181020;55;1145311;-75
2022/10/18 10:55:36;;;;;;;19.23;14.57;;;;;;;15.79;100.00;101485.05;5159738;56;1145263;-76
2022/10/18 11:00:45;;;;;;;15.77;12.53;;;;;;;15.72;100.00;101498.56;5215913;55;1145271;-73
2022/10/18 11:05:56;;;;;;;12.47;10.07;;;;;;;15.61;100.00;101523.08;5242868;56;1145337;-75
2022/10/18 11:11:29;;;;;;;15.17;11.37;;;;;;;15.59;100.00;101520.53;5242858;56;1145235;-74
2022/10/18 11:16:56;;;;;;;14.47;9.93;;;;;;;15.69;100.00;101504.14;5238279;55;1145236;-74
2022/10/18 11:22:05;;;;;;;10.93;6.93;;;;;;;15.80;100.00;101502.75;5244377;55;1143363;-74
2022/10/18 11:27:40;;;;;;;6.27;5.67;;;;;;;15.91;100.00;101482.31;5222873;56;1143192;-74
2022/10/18 11:33:08;;;;;;;9.33;7.30;;;;;;;16.01;100.00;101464.09;5221829;56;1139034;-74
2022/10/18 11:38:27;;;;;;;14.87;10.10;;;;;;;16.08;100.00;101453.22;5221849;56;1138926;-74
2022/10/18 11:44:03;;;;;;;11.47;9.20;;;;;;;16.08;100.00;101433.70;5215441;55;1143112;-74
2022/10/18 11:49:37;;;;;;;12.37;8.90;;;;;;;16.06;100.00;101429.82;5187948;55;1143680;-73
2022/10/18 11:54:47;;;;;;;11.40;8.15;;;;;;;15.98;100.00;101440.33;5214868;56;1143255;-74
2022/10/18 12:00:06;;;;;;;16.57;11.13;;;;;;;15.93;100.00;101407.84;5209134;56;1143238;-73
2022/10/18 12:05:14;;;;;;;16.00;10.50;;;;;;;16.02;100.00;101404.89;5176383;56;1145446;-73
2022/10/18 12:10:22;;;;;;;13.50;8.93;;;;;;;16.05;100.00;101409.45;5125193;57;1145229;-74
2022/10/18 12:15:30;;;;;;;16.53;9.20;;;;;;;16.05;100.00;101420.61;5177243;56;1143109;-73
2022/10/18 12:20:48;;;;;;;14.20;9.50;;;;;;;15.96;100.00;101431.60;5195407;56;1143076;-73
2022/10/18 12:26:05;;;;;;;12.90;9.37;;;;;;;15.82;100.00;101443.45;5206008;56;1143171;-73
2022/10/18 12:31:27;;;;;;;15.93;9.10;;;;;;;15.79;100.00;101418.86;5218813;56;1143417;-73
2022/10/18 12:36:43;;;;;;;7.07;5.43;;;;;;;15.90;100.00;101413.44;5217727;55;1143168;-73
2022/10/18 12:41:52;;;;;;;8.23;5.80;;;;;;;15.93;100.00;101423.01;5226776;56;1141095;-74
2022/10/18 12:47:04;;;;;;;7.23;5.47;;;;;;;15.86;100.00;101413.37;5228725;56;1141065;-74
2022/10/18 12:52:28;;;;;;;16.50;8.33;;;;;;;15.81;100.00;101427.58;5208013;55;1141296;-74
2022/10/18 12:57:56;;;;;;;10.66;8.32;;;;;;;15.73;100.00;101408.73;5147120;56;1141029;-75
2022/10/18 13:03:18;;;;;;;8.43;6.17;;;;;;;15.65;100.00;101400.52;5092014;56;1141164;-74
2022/10/18 13:08:42;;;;;;;7.60;5.07;;;;;;;15.61;100.00;101391.92;5130391;57;1139096;-74
2022/10/18 13:14:18;;;;;;;10.30;5.50;;;;;;;15.64;100.00;101397.00;5130368;57;1139194;-74
2022/10/18 13:19:48;;;;;;;11.83;7.60;;;;;;;15.57;100.00;101402.52;5006544;58;1143176;-74
2022/10/18 13:25:07;;;;;;;10.40;7.13;;;;;;;15.56;100.00;101415.48;5178228;56;1143074;-75
2022/10/18 13:30:35;;;;;;;7.03;5.13;;;;;;;15.53;100.00;101421.03;5183908;56;1143112;-74
2022/10/18 13:35:56;;;;;;;9.60;5.17;;;;;;;15.53;100.00;101405.53;5227435;56;1141159;-72
2022/10/18 13:41:12;;;;;;;5.60;4.47;;;;;;;15.53;100.00;101400.20;5232433;56;1141193;-73
2022/10/18 13:46:25;;;;;;;7.60;6.10;;;;;;;15.48;100.00;101397.42;5211048;55;1141085;-73
2022/10/18 13:51:54;;;;;;;5.10;4.60;;;;;;;15.45;100.00;101392.83;5189471;56;1141171;-73
2022/10/18 13:57:39;;;;;;;8.07;5.73;;;;;;;15.43;100.00;101384.95;5197484;55;1140982;-73
2022/10/18 14:03:37;;;;;;;10.30;6.30;;;;;;;15.47;100.00;101366.89;5232035;55;1141234;-72
2022/10/18 14:08:59;;;;;;;11.73;6.40;;;;;;;15.53;100.00;101365.53;5194931;55;1141006;-73
2022/10/18 14:14:29;;;;;;;145.50;84.23;;;;;;;15.52;100.00;101374.02;5176712;55;1141139;-73
2022/10/18 14:19:41;;;;;;;125.02;73.46;;;;;;;15.47;100.00;101378.39;5218658;56;1147273;-73
2022/10/18 14:24:56;;;;;;;81.17;45.67;;;;;;;15.45;100.00;101382.16;5178543;56;1147533;-74
2022/10/18 14:30:19;;;;;;;34.00;21.33;;;;;;;15.41;100.00;101374.09;5192815;55;1145541;-74
2022/10/18 14:35:31;;;;;;;15.90;12.83;;;;;;;15.41;100.00;101369.60;5188232;55;1145071;-74
2022/10/18 14:40:40;;;;;;;39.98;24.63;;;;;;;15.44;100.00;101357.33;5213535;55;1145175;-74
2022/10/18 14:45:45;;;;;;;21.80;13.97;;;;;;;15.44;100.00;101349.33;5173751;55;1145333;-75
2022/10/18 14:50:59;;;;;;;21.83;12.00;;;;;;;15.45;100.00;101347.02;5174436;55;1145225;-75
2022/10/18 14:56:07;;;;;;;14.53;9.90;;;;;;;15.40;100.00;101365.73;5229653;55;1145211;-73
2022/10/18 15:01:23;;;;;;;13.57;8.43;;;;;;;15.30;100.00;101364.30;5196710;55;1143155;-73
2022/10/18 15:06:28;;;;;;;11.93;8.60;;;;;;;15.23;100.00;101380.95;5186242;55;1143371;-73
2022/10/18 15:11:34;;;;;;;15.03;9.43;;;;;;;15.16;100.00;101387.75;5143684;55;1143132;-73
2022/10/18 15:16:41;;;;;;;14.37;10.23;;;;;;;15.10;100.00;101394.45;5168763;56;1143115;-73
2022/10/18 15:22:08;;;;;;;27.10;16.77;;;;;;;15.13;100.00;101397.69;5219748;55;1145220;-74
2022/10/18 15:27:18;;;;;;;13.87;10.30;;;;;;;15.12;100.00;101389.33;5196744;56;1145207;-74
2022/10/18 15:32:30;;;;;;;9.03;5.53;;;;;;;15.04;100.00;101378.48;5153121;56;1145422;-74
2022/10/18 15:37:45;;;;;;;5.93;5.13;;;;;;;14.93;100.00;101377.68;5229547;56;1141084;-73
2022/10/18 15:42:57;;;;;;;7.37;5.27;;;;;;;14.86;100.00;101376.48;5182248;55;1141024;-73
2022/10/18 15:48:19;;;;;;;6.43;4.50;;;;;;;14.80;100.00;101382.33;5209903;56;1141363;-74
2022/10/18 15:53:36;;;;;;;5.77;3.97;;;;;;;14.72;100.00;101382.45;5203369;56;1138911;-74
2022/10/18 15:58:46;;;;;;;6.00;3.20;;;;;;;14.64;100.00;101374.73;5158870;56;1139217;-73
2022/10/18 16:03:52;;;;;;;5.40;3.40;;;;;;;14.59;100.00;101378.24;5052344;57;1139402;-74
2022/10/18 16:08:58;;;;;;;9.10;4.50;;;;;;;14.57;100.00;101373.52;5102640;57;1139069;-74
2022/10/18 16:14:04;;;;;;;3.43;2.33;;;;;;;14.53;100.00;101376.06;5179252;56;1138969;-74
2022/10/18 16:19:17;;;;;;;2.93;2.67;;;;;;;14.49;100.00;101382.14;5216697;56;1139011;-74
2022/10/18 16:24:23;;;;;;;2.40;2.20;;;;;;;14.46;100.00;101386.86;5198912;56;1139115;-74
2022/10/18 16:29:31;;;;;;;2.83;2.30;;;;;;;14.38;100.00;101386.94;5036058;58;1139069;-72
2022/10/18 16:34:37;;;;;;;4.07;3.30;;;;;;;14.29;100.00;101393.00;5138998;56;1138947;-73
2022/10/18 16:39:43;;;;;;;12.53;2.80;;;;;;;14.23;100.00;101390.81;5183343;56;1139249;-74
2022/10/18 16:44:49;;;;;;;2.93;1.83;;;;;;;14.19;100.00;101404.50;5153622;56;1139148;-74
2022/10/18 16:49:54;;;;;;;6.17;3.17;;;;;;;14.14;100.00;101409.33;5126603;56;1137127;-74
2022/10/18 16:55:00;;;;;;;3.80;3.30;;;;;;;14.03;100.00;101412.35;5150424;57;21150;-78
2022/10/18 17:00:08;;;;;;;7.87;3.60;;;;;;;13.95;100.00;101420.06;5168196;56;1136824;-76
2022/10/18 17:05:14;;;;;;;6.58;4.00;;;;;;;13.91;100.00;101415.94;5217096;56;1141195;-75
2022/10/18 17:10:23;;;;;;;4.77;3.97;;;;;;;13.89;100.00;101421.03;5228171;56;1141072;-76
2022/10/18 17:15:28;;;;;;;3.73;3.43;;;;;;;13.85;100.00;101427.06;5233569;55;1141390;-76
2022/10/18 17:20:35;;;;;;;5.23;4.73;;;;;;;13.85;100.00;101423.08;5204563;55;1141353;-74
2022/10/18 17:25:43;;;;;;;4.17;3.77;;;;;;;13.87;100.00;101422.97;5223178;55;1141177;-76
2022/10/18 17:30:50;;;;;;;6.50;4.30;;;;;;;13.89;100.00;101427.20;5230301;55;1141162;-75
2022/10/18 17:35:58;;;;;;;4.23;3.83;;;;;;;13.91;100.00;101427.05;5238846;55;1141271;-66
2022/10/18 17:41:11;;;;;;;7.13;4.43;;;;;;;13.88;100.00;101435.30;5238093;55;1141073;-66
2022/10/18 17:46:18;;;;;;;7.40;5.10;;;;;;;13.87;100.00;101442.91;5212400;55;1141475;-67
2022/10/18 17:51:24;;;;;;;8.57;4.77;;;;;;;13.86;100.00;101445.20;5146753;56;1141571;-68
2022/10/18 17:56:32;;;;;;;7.70;5.47;;;;;;;13.83;100.00;101442.77;5147561;56;1141090;-71
2022/10/18 18:01:37;;;;;;;10.73;5.27;;;;;;;13.81;100.00;101435.39;5178982;56;1141010;-69
2022/10/18 18:06:44;;;;;;;9.10;5.67;;;;;;;13.78;100.00;101432.47;5190099;56;1143127;-66
2022/10/18 18:11:50;;;;;;;9.93;6.30;;;;;;;13.77;100.00;101439.23;5178223;56;1141014;-69
2022/10/18 18:17:00;;;;;;;13.57;6.03;;;;;;;13.72;100.00;101435.14;5161382;56;1140857;-70
2022/10/18 18:22:07;;;;;;;6.90;5.10;;;;;;;13.77;100.00;101441.89;5215872;56;1143694;-68
2022/10/18 18:27:13;;;;;;;20.77;7.53;;;;;;;13.75;100.00;101439.86;5183722;56;1141096;-70
2022/10/18 18:32:19;;;;;;;10.03;6.60;;;;;;;13.73;100.00;101442.16;5214627;56;1143120;-68
2022/10/18 18:37:25;;;;;;;9.70;5.43;;;;;;;13.70;100.00;101429.57;5215041;56;1143127;-68
2022/10/18 18:42:32;;;;;;;8.53;5.73;;;;;;;13.69;100.00;101447.81;5236326;55;1141092;-69
2022/10/18 18:47:39;;;;;;;9.23;6.23;;;;;;;13.61;100.00;101451.52;5247991;55;1141293;-71
2022/10/18 18:52:46;;;;;;;12.37;6.93;;;;;;;13.52;100.00;101445.09;5243894;55;1141340;-67
2022/10/18 18:57:51;;;;;;;11.83;7.13;;;;;;;13.45;100.00;101445.17;5224569;55;1143562;-69
2022/10/18 19:02:57;;;;;;;11.63;6.77;;;;;;;13.34;100.00;101443.81;5272218;55;1143135;-68
2022/10/18 19:08:05;;;;;;;12.47;6.37;;;;;;;13.29;100.00;101435.35;5170597;56;1143156;-69
2022/10/18 19:13:11;;;;;;;17.90;8.00;;;;;;;13.26;100.00;101439.08;5135490;57;1143098;-69
2022/10/18 19:18:17;;;;;;;9.33;5.70;;;;;;;13.29;100.00;101444.14;5140547;57;1143149;-68
2022/10/18 19:23:23;;;;;;;12.00;6.13;;;;;;;13.35;100.00;101445.50;5140603;57;1140594;-66
2022/10/18 19:28:29;;;;;;;11.37;6.23;;;;;;;13.38;100.00;101447.94;5208556;56;1143160;-67
2022/10/18 19:33:34;;;;;;;11.90;6.83;;;;;;;13.36;100.00;101449.86;5226624;56;1143159;-67
2022/10/18 19:38:40;;;;;;;10.50;7.00;;;;;;;13.34;100.00;101463.25;5226515;56;1143208;-68
2022/10/18 19:43:46;;;;;;;6.77;5.47;;;;;;;13.31;100.00;101466.61;5226561;56;1143112;-66
2022/10/18 19:48:53;;;;;;;9.97;5.80;;;;;;;13.30;100.00;101475.54;5232197;55;1141244;-65
2022/10/18 19:53:59;;;;;;;9.93;6.20;;;;;;;13.28;100.00;101479.67;5192706;56;1139007;-69
2022/10/18 19:59:05;;;;;;;15.37;7.87;;;;;;;13.24;100.00;101482.66;5190247;55;1139254;-68
2022/10/18 20:04:12;;;;;;;10.17;6.73;;;;;;;13.16;100.00;101485.00;5197407;55;1141382;-65
2022/10/18 20:09:20;;;;;;;11.23;5.60;;;;;;;13.10;100.00;101487.62;5196845;56;1141063;-68
2022/10/18 20:14:26;;;;;;;11.73;5.93;;;;;;;13.07;100.00;101490.97;5226310;55;1141052;-68
2022/10/18 20:19:32;;;;;;;13.53;5.60;;;;;;;12.98;100.00;101484.53;5207112;55;1141022;-67
2022/10/18 20:24:38;;;;;;;16.33;9.13;;;;;;;12.92;100.00;101481.83;5194401;55;1141277;-68
2022/10/18 20:29:43;;;;;;;8.97;5.60;;;;;;;12.83;100.00;101487.77;5198424;55;1141079;-65
2022/10/18 20:34:50;;;;;;;12.50;5.63;;;;;;;12.81;100.00;101490.20;5192124;55;1138953;-68
2022/10/18 20:39:56;;;;;;;12.80;6.70;;;;;;;12.75;100.00;101482.66;5195701;56;1141078;-65
2022/10/18 20:45:02;;;;;;;7.58;4.45;;;;;;;12.72;100.00;101485.05;5207207;55;1141005;-64
2022/10/18 20:50:09;;;;;;;12.47;5.17;;;;;;;12.68;100.00;101485.73;5238931;55;1139056;-64
2022/10/18 20:55:15;;;;;;;10.13;4.83;;;;;;;12.60;100.00;101490.75;5156380;56;1141127;-65
2022/10/18 21:00:21;;;;;;;13.13;4.83;;;;;;;12.53;100.00;101495.26;5168588;56;1141024;-69
2022/10/18 21:05:29;;;;;;;8.83;4.50;;;;;;;12.46;100.00;101497.98;5242797;55;1141262;-65
2022/10/18 21:10:34;;;;;;;9.10;6.00;;;;;;;12.40;100.00;101495.75;5242826;55;1139115;-65
2022/10/18 21:15:40;;;;;;;13.90;6.00;;;;;;;12.33;100.00;101495.34;5242663;56;1139073;-65
2022/10/18 21:20:46;;;;;;;12.17;5.57;;;;;;;12.24;100.00;101494.16;5242547;56;1139076;-68
2022/10/18 21:25:51;;;;;;;8.53;5.23;;;;;;;12.19;100.00;101494.13;5242625;56;1139102;-67
2022/10/18 21:31:11;;;;;;;10.93;4.70;;;;;;;12.11;100.00;101489.33;5257952;56;1141100;-67
2022/10/18 21:36:16;;;;;;;9.23;4.95;;;;;;;12.09;100.00;101484.61;5326908;55;1143128;-68
2022/10/18 21:41:23;;;;;;;12.60;5.37;;;;;;;12.06;100.00;101480.02;5249357;55;1140490;-67
2022/10/18 21:46:29;;;;;;;12.70;6.33;;;;;;;12.06;100.00;101474.71;5331267;55;1143139;-68
2022/10/18 21:51:35;;;;;;;13.83;6.40;;;;;;;12.06;100.00;101463.63;5275658;55;1143231;-64
2022/10/18 21:56:41;;;;;;;29.50;9.73;;;;;;;12.03;100.00;101457.68;5216174;56;1143204;-62
2022/10/18 22:01:47;;;;;;;11.35;7.17;;;;;;;11.97;100.00;101453.64;5282049;55;1143419;-65
2022/10/18 22:06:54;;;;;;;18.37;8.53;;;;;;;11.92;100.00;101451.77;5304426;55;1143260;-67
2022/10/18 22:12:01;;;;;;;11.27;8.23;;;;;;;11.89;100.00;101442.25;5304761;55;1143055;-65
2022/10/18 22:17:07;;;;;;;15.00;7.40;;;;;;;11.88;100.00;101433.92;5304533;55;1143330;-65
2022/10/18 22:22:12;;;;;;;13.33;7.77;;;;;;;11.87;100.00;101430.89;5285493;55;1143083;-64
2022/10/18 22:27:18;;;;;;;16.23;8.00;;;;;;;11.82;100.00;101426.85;5159957;56;1143126;-64
2022/10/18 22:32:25;;;;;;;14.17;7.43;;;;;;;11.83;100.00;101422.77;5141798;57;1143216;-65
2022/10/18 22:37:31;;;;;;;16.80;7.47;;;;;;;11.82;100.00;101419.75;5142126;57;1143127;-69
2022/10/18 22:42:37;;;;;;;18.40;6.73;;;;;;;11.79;100.00;101413.80;5142241;57;1143169;-64
2022/10/18 22:47:43;;;;;;;16.33;7.03;;;;;;;11.74;100.00;101411.93;5143110;57;1143190;-64
2022/10/18 22:52:49;;;;;;;13.67;7.97;;;;;;;11.72;100.00;101405.41;5234995;55;1143197;-63
2022/10/18 22:57:56;;;;;;;14.17;6.90;;;;;;;11.73;100.00;101407.58;5320613;55;1143292;-65